TimeMDT,TemperatureF,Dew PointF,Humidity,Sea Level PressureIn,VisibilityMPH,Wind Direction,Wind SpeedMPH,Gust SpeedMPH,PrecipitationIn,Events,Conditions,WindDirDegrees,DateUTC
12:15 AM,44.6,26.6,49,30.21,10.0,Calm,Calm,-,N/A,,Clear,0,2012-10-12 06:15:00
12:34 AM,46.4,28.4,50,30.21,10.0,Calm,Calm,-,N/A,,Clear,0,2012-10-12 06:34:00
12:51 AM,44.6,26.6,49,30.21,10.0,Calm,Calm,-,N/A,,Clear,0,2012-10-12 06:51:00
1:14 AM,44.6,26.6,49,30.21,10.0,North,6.9,-,N/A,,Clear,10,2012-10-12 07:14:00
1:31 AM,44.6,28.4,53,30.20,10.0,North,8.1,-,N/A,,Clear,360,2012-10-12 07:31:00
2:15 AM,41.0,26.6,57,30.21,10.0,Calm,Calm,-,N/A,,Clear,0,2012-10-12 08:15:00
2:35 AM,41.0,26.6,57,30.21,10.0,Calm,Calm,-,N/A,,Clear,0,2012-10-12 08:35:00
2:55 AM,41.0,26.6,57,30.21,10.0,Calm,Calm,-,N/A,,Clear,0,2012-10-12 08:55:00
3:13 AM,41.0,26.6,57,30.21,10.0,Calm,Calm,-,N/A,,Clear,0,2012-10-12 09:13:00
3:35 AM,39.2,26.6,61,30.20,10.0,Calm,Calm,-,N/A,,Clear,0,2012-10-12 09:35:00
3:54 AM,37.4,26.6,65,30.21,10.0,Calm,Calm,-,N/A,,Clear,0,2012-10-12 09:54:00
4:15 AM,37.4,28.4,70,30.21,10.0,Calm,Calm,-,N/A,,Clear,0,2012-10-12 10:15:00
4:55 AM,33.8,23.0,65,30.21,10.0,Calm,Calm,-,N/A,,Clear,0,2012-10-12 10:55:00
5:15 AM,33.8,24.8,70,30.21,10.0,Calm,Calm,-,N/A,,Clear,0,2012-10-12 11:15:00
5:35 AM,33.8,23.0,65,30.21,10.0,Calm,Calm,-,N/A,,Clear,0,2012-10-12 11:35:00
5:55 AM,33.8,26.6,75,30.21,10.0,Calm,Calm,-,N/A,,Clear,0,2012-10-12 11:55:00
6:14 AM,33.8,26.6,75,30.22,10.0,Calm,Calm,-,N/A,,Clear,0,2012-10-12 12:14:00
6:34 AM,32.0,23.0,69,30.21,10.0,Calm,Calm,-,N/A,,Clear,0,2012-10-12 12:34:00
6:55 AM,32.0,23.0,69,30.22,10.0,Calm,Calm,-,N/A,,Clear,0,2012-10-12 12:55:00
7:15 AM,32.0,23.0,69,30.21,10.0,Calm,Calm,-,N/A,,Clear,0,2012-10-12 13:15:00
7:30 AM,32.0,23.0,69,30.20,10.0,Calm,Calm,-,N/A,,Clear,0,2012-10-12 13:30:00
7:55 AM,32.0,23.0,69,30.20,10.0,Calm,Calm,-,N/A,,Clear,0,2012-10-12 13:55:00
8:15 AM,35.6,24.8,65,30.22,10.0,Calm,Calm,-,N/A,,Clear,0,2012-10-12 14:15:00
8:31 AM,35.6,24.8,65,30.22,10.0,Calm,Calm,-,N/A,,Clear,0,2012-10-12 14:31:00
8:55 AM,37.4,24.8,60,30.21,10.0,Calm,Calm,-,N/A,,Clear,0,2012-10-12 14:55:00
8:57 AM,37.4,24.8,60,30.22,10.0,SW,3.5,-,N/A,,Clear,220,2012-10-12 14:57:00
9:35 AM,42.8,26.6,53,30.19,10.0,Calm,Calm,-,N/A,,Clear,0,2012-10-12 15:35:00
10:14 AM,50.0,28.4,43,30.17,10.0,Calm,Calm,-,N/A,,Clear,0,2012-10-12 16:14:00
10:23 AM,51.8,28.4,41,30.16,10.0,Calm,Calm,-,N/A,,Clear,0,2012-10-12 16:23:00
10:52 AM,53.6,26.6,35,30.14,10.0,Calm,Calm,-,N/A,,Clear,0,2012-10-12 16:52:00
11:25 AM,55.4,26.6,33,30.12,10.0,Calm,Calm,-,N/A,,Clear,0,2012-10-12 17:25:00
11:42 AM,55.4,24.8,31,30.12,10.0,Calm,Calm,-,N/A,,Scattered Clouds,0,2012-10-12 17:42:00
12:35 PM,59.0,24.8,27,30.08,10.0,SSE,3.5,-,N/A,Thunderstorm,Mostly Cloudy,150,2012-10-12 18:35:00
12:36 PM,59.0,24.8,27,30.08,10.0,South,3.5,-,N/A,Thunderstorm,Mostly Cloudy,170,2012-10-12 18:36:00
12:58 PM,60.8,24.8,25,30.06,10.0,East,5.8,-,N/A,Thunderstorm,Mostly Cloudy,100,2012-10-12 18:58:00
1:21 PM,53.6,35.6,51,30.12,5.0,South,12.7,43.7,0.02,Rain-Thunderstorm,Heavy Thunderstorms and Rain,190,2012-10-12 19:21:00
1:36 PM,50.0,35.6,58,30.12,10.0,SSW,17.3,32.2,0.02,Rain-Thunderstorm,Light Thunderstorms and Rain,210,2012-10-12 19:36:00
2:01 PM,50.0,37.4,62,30.09,10.0,West,5.8,18.4,N/A,Thunderstorm,Thunderstorm,270,2012-10-12 20:01:00
2:35 PM,51.8,39.2,62,30.08,10.0,ESE,10.4,-,N/A,,Scattered Clouds,110,2012-10-12 20:35:00
2:53 PM,50.0,37.4,62,30.08,10.0,East,9.2,-,N/A,,Scattered Clouds,90,2012-10-12 20:53:00
3:04 PM,50.0,39.2,66,30.08,10.0,East,9.2,-,N/A,Rain,Light Rain,100,2012-10-12 21:04:00
3:19 PM,51.8,41.0,67,30.07,10.0,East,5.8,-,N/A,Rain-Thunderstorm,Light Thunderstorms and Rain,90,2012-10-12 21:19:00
3:52 PM,51.8,37.4,58,30.07,10.0,ENE,4.6,-,N/A,,Mostly Cloudy,70,2012-10-12 21:52:00
4:15 PM,50.0,35.6,58,30.08,10.0,North,8.1,-,N/A,,Overcast,360,2012-10-12 22:15:00
4:41 PM,50.0,37.4,62,30.05,10.0,North,8.1,-,N/A,Rain,Rain,360,2012-10-12 22:41:00
4:56 PM,50.0,39.2,66,30.06,10.0,South,3.5,-,N/A,Rain,Rain,190,2012-10-12 22:56:00
5:31 PM,50.0,37.4,62,30.04,10.0,WNW,4.6,-,N/A,,Scattered Clouds,300,2012-10-12 23:31:00
5:55 PM,50.0,35.6,58,30.04,10.0,NNW,5.8,-,N/A,,Scattered Clouds,330,2012-10-12 23:55:00
6:15 PM,48.2,37.4,66,30.03,10.0,SSE,4.6,-,N/A,Thunderstorm,Scattered Clouds,160,2012-10-13 00:15:00
6:19 PM,46.4,37.4,71,30.02,10.0,Calm,Calm,-,N/A,Thunderstorm,Scattered Clouds,0,2012-10-13 00:19:00
6:37 PM,46.4,37.4,71,30.04,10.0,SSW,3.5,-,N/A,Thunderstorm,Thunderstorm,210,2012-10-13 00:37:00
7:13 PM,41.0,32.0,70,30.06,10.0,Calm,Calm,-,0.04,Rain-Thunderstorm,Light Thunderstorms and Rain,0,2012-10-13 01:13:00
7:16 PM,41.0,32.0,70,30.06,10.0,WNW,3.5,-,0.04,Rain-Thunderstorm,Light Thunderstorms and Rain,300,2012-10-13 01:16:00
7:38 PM,41.0,33.8,76,30.07,10.0,NNW,3.5,-,0.04,Thunderstorm,Thunderstorm,330,2012-10-13 01:38:00
8:01 PM,41.0,33.8,76,30.10,10.0,WSW,5.8,-,N/A,Thunderstorm,Unknown,250,2012-10-13 02:01:00
8:32 PM,37.4,33.8,87,30.10,10.0,Calm,Calm,-,0.04,Rain,Light Rain,0,2012-10-13 02:32:00
8:58 PM,37.4,33.8,87,30.12,10.0,West,4.6,-,0.06,Rain,Light Rain,260,2012-10-13 02:58:00
9:37 PM,37.4,32.0,81,30.13,10.0,Calm,Calm,-,0.03,Rain,Light Rain,0,2012-10-13 03:37:00
10:11 PM,37.4,32.0,81,30.12,10.0,Calm,Calm,-,N/A,Rain,Light Rain,0,2012-10-13 04:11:00
10:22 PM,37.4,32.0,81,30.12,10.0,Calm,Calm,-,N/A,,Overcast,0,2012-10-13 04:22:00
10:37 PM,37.4,33.8,87,30.12,10.0,SE,4.6,-,N/A,Thunderstorm,Overcast,130,2012-10-13 04:37:00
10:59 PM,37.4,33.8,87,30.11,10.0,Calm,Calm,-,N/A,,Overcast,0,2012-10-13 04:59:00